createdAt,value
2023-02-18T00:00:35.440Z,83.325195
2023-02-18T00:01:44.131Z,83.465576
2023-02-18T00:02:53.801Z,83.569336
2023-02-18T00:04:02.440Z,83.673096
2023-02-18T00:05:11.093Z,83.569336
2023-02-18T00:06:20.781Z,83.569336
2023-02-18T00:07:30.469Z,83.673096
2023-02-18T00:08:39.090Z,83.569336
2023-02-18T00:09:48.772Z,83.673096
2023-02-18T00:10:58.429Z,83.776855
2023-02-18T00:12:08.156Z,83.776855
2023-02-18T00:13:15.787Z,83.776855
2023-02-18T00:14:23.525Z,83.776855
2023-02-18T00:15:33.187Z,83.734131
2023-02-18T00:16:41.851Z,83.776855
2023-02-18T00:17:50.484Z,83.874512
2023-02-18T00:18:59.132Z,83.978271
2023-02-18T00:20:07.766Z,83.978271
2023-02-18T00:21:17.466Z,84.082031
2023-02-18T00:22:27.125Z,83.94165
2023-02-18T00:23:36.814Z,83.978271
2023-02-18T00:24:47.432Z,84.179688
2023-02-18T00:25:57.102Z,84.179688
2023-02-18T00:27:06.773Z,84.283447
2023-02-18T00:28:15.432Z,84.490967
2023-02-18T00:29:24.085Z,84.588623
2023-02-18T00:30:33.753Z,84.692383
2023-02-18T00:31:41.530Z,84.796143
2023-02-18T00:32:49.096Z,84.796143
2023-02-18T00:33:58.823Z,85.040283
2023-02-18T00:35:07.453Z,85.040283
2023-02-18T00:36:17.106Z,84.997559
2023-02-18T00:37:25.848Z,84.997559
2023-02-18T00:38:34.497Z,84.997559
2023-02-18T00:39:44.189Z,85.205078
2023-02-18T00:40:53.824Z,85.101318
2023-02-18T00:42:02.493Z,85.101318
2023-02-18T00:43:12.155Z,85.101318
2023-02-18T00:44:21.799Z,85.205078
2023-02-18T00:45:30.481Z,85.302734
2023-02-18T00:46:39.198Z,85.302734
2023-02-18T00:47:47.822Z,85.302734
2023-02-18T00:48:56.475Z,85.449219
2023-02-18T00:50:06.119Z,85.650635
2023-02-18T00:51:13.792Z,85.650635
2023-02-18T00:52:23.472Z,85.754395
2023-02-18T00:53:32.121Z,85.858154
2023-02-18T00:54:40.756Z,85.955811
2023-02-18T00:55:49.427Z,86.05957
2023-02-18T00:56:58.125Z,86.16333
2023-02-18T00:58:07.767Z,86.16333
2023-02-18T00:59:16.426Z,86.260986
2023-02-18T01:00:25.170Z,86.260986
2023-02-18T01:01:34.982Z,86.260986
2023-02-18T01:02:44.533Z,86.260986
2023-02-18T01:03:54.193Z,86.407471
2023-02-18T01:05:02.901Z,86.51123
2023-02-18T01:06:11.517Z,86.608887
2023-02-18T01:07:21.182Z,86.608887
2023-02-18T01:08:29.844Z,86.608887
2023-02-18T01:09:39.500Z,86.712646
2023-02-18T01:10:49.155Z,86.816406
2023-02-18T01:11:58.839Z,87.017822
2023-02-18T01:13:08.491Z,87.121582
2023-02-18T01:14:17.110Z,87.426758
2023-02-18T01:15:25.784Z,87.322998
2023-02-18T01:16:35.452Z,87.322998
2023-02-18T01:17:44.136Z,87.530518
2023-02-18T01:18:52.819Z,87.731934
2023-02-18T01:20:02.464Z,87.634277
2023-02-18T01:21:11.171Z,87.634277
2023-02-18T01:22:19.888Z,87.634277
2023-02-18T01:23:28.534Z,87.731934
2023-02-18T01:24:37.202Z,87.835693
2023-02-18T01:25:46.838Z,87.939453
2023-02-18T01:26:54.500Z,87.939453
2023-02-18T01:28:04.200Z,87.939453
2023-02-18T01:29:13.835Z,88.043213
2023-02-18T01:30:22.567Z,88.140869
2023-02-18T01:31:31.236Z,88.043213
2023-02-18T01:32:39.832Z,88.043213
2023-02-18T01:33:49.523Z,88.043213
2023-02-18T01:34:59.187Z,88.244629
2023-02-18T01:36:07.274Z,88.348389
2023-02-18T01:37:15.500Z,88.348389
2023-02-18T01:38:25.195Z,88.348389
2023-02-18T01:39:34.869Z,88.348389
2023-02-18T01:40:44.586Z,88.653564
2023-02-18T01:41:53.236Z,88.653564
2023-02-18T01:43:01.898Z,88.757324
2023-02-18T01:44:11.579Z,88.85498
2023-02-18T01:45:21.214Z,88.95874
2023-02-18T01:46:29.925Z,88.85498
2023-02-18T01:47:38.584Z,88.95874
2023-02-18T01:48:47.246Z,88.95874
2023-02-18T01:49:55.997Z,89.0625
2023-02-18T01:51:04.664Z,89.16626
2023-02-18T01:52:13.312Z,89.263916
2023-02-18T01:53:23.019Z,89.367676
2023-02-18T01:54:31.693Z,89.306641
2023-02-18T01:55:41.344Z,89.4104
2023-02-18T01:56:49.001Z,89.575195
2023-02-18T01:57:57.648Z,89.471436
2023-02-18T01:59:07.350Z,89.367676
2023-02-18T02:00:17.037Z,89.367676
2023-02-18T02:01:26.670Z,89.263916
2023-02-18T02:02:35.313Z,89.263916
2023-02-18T02:03:45.016Z,89.367676
2023-02-18T02:04:54.724Z,89.263916
2023-02-18T02:06:02.362Z,89.263916
2023-02-18T02:07:10.003Z,89.16626
2023-02-18T02:08:19.682Z,89.0625
2023-02-18T02:09:28.335Z,89.0625
2023-02-18T02:10:37.989Z,88.95874
2023-02-18T02:11:46.636Z,88.95874
2023-02-18T02:12:55.331Z,88.85498
2023-02-18T02:14:04.999Z,88.85498
2023-02-18T02:15:13.641Z,88.7146
2023-02-18T02:16:23.340Z,88.7146
2023-02-18T02:17:33.012Z,88.757324
2023-02-18T02:18:41.721Z,88.757324
2023-02-18T02:19:51.368Z,88.85498
2023-02-18T02:21:01.033Z,88.85498
2023-02-18T02:22:10.679Z,88.7146
2023-02-18T02:23:20.358Z,88.61084
2023-02-18T02:24:28.016Z,88.50708
2023-02-18T02:25:35.662Z,88.409424
2023-02-18T02:26:45.323Z,88.409424
2023-02-18T02:27:53.986Z,88.409424
2023-02-18T02:29:02.657Z,88.305664
2023-02-18T02:30:12.351Z,88.201904
2023-02-18T02:31:22.072Z,88.104248
2023-02-18T02:32:31.676Z,88.104248
2023-02-18T02:33:41.326Z,88.104248
2023-02-18T02:34:49.006Z,88.104248
2023-02-18T02:35:58.667Z,88.201904
2023-02-18T02:37:07.312Z,88.201904
2023-02-18T02:38:16.986Z,88.104248
2023-02-18T02:39:26.649Z,88.201904
2023-02-18T02:40:36.294Z,88.104248
2023-02-18T02:41:45.964Z,88.061523
2023-02-18T02:42:53.641Z,88.061523
2023-02-18T02:44:02.309Z,87.957764
2023-02-18T02:45:11.982Z,87.957764
2023-02-18T02:46:20.614Z,87.957764
2023-02-18T02:47:29.263Z,87.957764
2023-02-18T02:48:39.002Z,87.957764
2023-02-18T02:49:48.649Z,88.165283
2023-02-18T02:50:58.277Z,88.262939
2023-02-18T02:52:06.926Z,88.262939
2023-02-18T02:53:15.587Z,88.366699
2023-02-18T02:54:25.361Z,88.470459
2023-02-18T02:55:34.008Z,88.568115
2023-02-18T02:56:42.682Z,88.568115
2023-02-18T02:57:51.365Z,88.775635
2023-02-18T02:59:01.003Z,88.879395
2023-02-18T03:00:10.664Z,88.977051
2023-02-18T03:01:19.359Z,88.977051
2023-02-18T03:02:27.961Z,89.080811
2023-02-18T03:03:37.649Z,89.080811
2023-02-18T03:04:47.364Z,89.080811
2023-02-18T03:05:57.055Z,89.282227
2023-02-18T03:07:05.719Z,89.282227
2023-02-18T03:08:14.355Z,89.385986
2023-02-18T03:09:24.033Z,89.489746
2023-02-18T03:10:33.679Z,89.489746
2023-02-18T03:11:42.352Z,89.489746
2023-02-18T03:12:52.007Z,89.385986
2023-02-18T03:14:01.681Z,89.385986
2023-02-18T03:15:10.327Z,89.385986
2023-02-18T03:16:20.009Z,89.385986
2023-02-18T03:17:28.635Z,89.489746
2023-02-18T03:18:37.288Z,89.489746
2023-02-18T03:19:45.083Z,89.489746
2023-02-18T03:20:54.766Z,89.489746
2023-02-18T03:22:04.396Z,89.593506
2023-02-18T03:23:13.042Z,89.593506
2023-02-18T03:24:21.727Z,89.593506
2023-02-18T03:25:30.378Z,89.593506
2023-02-18T03:26:39.042Z,89.593506
2023-02-18T03:27:48.708Z,89.489746
2023-02-18T03:28:58.362Z,89.385986
2023-02-18T03:30:07.042Z,89.282227
2023-02-18T03:31:16.765Z,89.282227
2023-02-18T03:32:26.344Z,89.18457
2023-02-18T03:33:35.005Z,89.18457
2023-02-18T03:34:44.740Z,89.18457
2023-02-18T03:35:53.320Z,89.18457
2023-02-18T03:37:03.002Z,89.282227
2023-02-18T03:38:12.643Z,89.282227
2023-02-18T03:39:20.324Z,89.282227
2023-02-18T03:40:29.997Z,89.282227
2023-02-18T03:41:38.705Z,89.385986
2023-02-18T03:42:47.408Z,89.385986
2023-02-18T03:43:56.082Z,89.385986
2023-02-18T03:45:05.756Z,89.385986
2023-02-18T03:46:15.451Z,89.385986
2023-02-18T03:47:24.080Z,89.385986
2023-02-18T03:48:32.717Z,89.385986
2023-02-18T03:49:42.419Z,89.385986
2023-02-18T03:50:50.061Z,89.385986
2023-02-18T03:51:58.711Z,89.385986
2023-02-18T03:53:07.379Z,89.385986
2023-02-18T03:54:17.018Z,89.385986
2023-02-18T03:55:26.688Z,89.385986
2023-02-18T03:56:36.371Z,89.282227
2023-02-18T03:57:46.054Z,89.282227
2023-02-18T03:58:54.740Z,89.282227
2023-02-18T04:00:04.396Z,89.282227
2023-02-18T04:01:14.108Z,89.282227
2023-02-18T04:02:23.697Z,89.385986
2023-02-18T04:03:32.386Z,89.282227
2023-02-18T04:04:41.093Z,89.385986
2023-02-18T04:05:49.701Z,89.385986
2023-02-18T04:06:59.374Z,89.385986
2023-02-18T04:08:07.014Z,89.532471
2023-02-18T04:09:17.694Z,89.630127
2023-02-18T04:10:27.393Z,89.630127
2023-02-18T04:11:37.049Z,89.630127
2023-02-18T04:12:45.726Z,89.630127
2023-02-18T04:13:54.371Z,89.733887
2023-02-18T04:15:03.080Z,89.837646
2023-02-18T04:16:12.782Z,89.837646
2023-02-18T04:17:21.384Z,89.837646
2023-02-18T04:18:29.039Z,89.837646
2023-02-18T04:19:37.711Z,89.837646
2023-02-18T04:20:47.360Z,89.941406
2023-02-18T04:21:56.024Z,89.941406
2023-02-18T04:23:04.686Z,89.941406
2023-02-18T04:24:13.337Z,90.039062
2023-02-18T04:25:23.034Z,90.142822
2023-02-18T04:26:32.670Z,90.142822
2023-02-18T04:27:41.432Z,90.039062
2023-02-18T04:28:51.084Z,90.039062
2023-02-18T04:29:59.809Z,90.039062
2023-02-18T04:31:08.556Z,90.142822
2023-02-18T04:32:18.097Z,90.142822
2023-02-18T04:33:26.747Z,90.142822
2023-02-18T04:34:36.414Z,90.246582
2023-02-18T04:35:44.076Z,90.246582
2023-02-18T04:36:52.722Z,90.246582
2023-02-18T04:38:02.392Z,90.142822
2023-02-18T04:39:11.030Z,90.039062
2023-02-18T04:40:20.724Z,89.941406
2023-02-18T04:41:30.390Z,89.941406
2023-02-18T04:42:39.030Z,89.941406
2023-02-18T04:43:48.682Z,89.837646
2023-02-18T04:44:56.365Z,89.733887
2023-02-18T04:46:04.063Z,89.733887
2023-02-18T04:47:13.657Z,89.733887
2023-02-18T04:48:23.339Z,89.630127
2023-02-18T04:49:32.982Z,89.630127
2023-02-18T04:50:42.649Z,89.630127
2023-02-18T04:51:52.291Z,89.630127
2023-02-18T04:53:01.949Z,89.630127
2023-02-18T04:54:11.621Z,89.672852
2023-02-18T04:55:21.277Z,89.575195
2023-02-18T04:56:30.939Z,89.575195
2023-02-18T04:57:39.643Z,89.471436
2023-02-18T04:58:48.279Z,89.367676
2023-02-18T04:59:57.936Z,89.367676
2023-02-18T05:01:06.644Z,89.367676
2023-02-18T05:02:16.274Z,89.367676
2023-02-18T05:03:25.940Z,89.367676
2023-02-18T05:04:33.595Z,89.367676
2023-02-18T05:05:42.287Z,89.367676
2023-02-18T05:06:51.944Z,89.263916
2023-02-18T05:08:01.614Z,89.263916
2023-02-18T05:09:11.276Z,89.263916
2023-02-18T05:10:20.947Z,89.263916
2023-02-18T05:11:30.644Z,89.16626
2023-02-18T05:12:40.308Z,89.263916
2023-02-18T05:13:49.977Z,89.16626
2023-02-18T05:14:59.628Z,89.16626
2023-02-18T05:16:08.684Z,89.16626
2023-02-18T05:17:17.968Z,89.16626
2023-02-18T05:18:27.620Z,89.16626
2023-02-18T05:19:37.296Z,89.0625
2023-02-18T05:20:46.965Z,89.0625
2023-02-18T05:21:54.612Z,89.0625
2023-02-18T05:23:04.253Z,89.0625
2023-02-18T05:24:13.923Z,89.0625
2023-02-18T05:25:23.621Z,88.85498
2023-02-18T05:26:32.232Z,88.653564
2023-02-18T05:27:41.896Z,88.549805
2023-02-18T05:28:51.546Z,88.549805
2023-02-18T05:30:01.276Z,88.446045
2023-02-18T05:31:11.121Z,88.446045
2023-02-18T05:32:19.639Z,88.348389
2023-02-18T05:33:29.296Z,88.446045
2023-02-18T05:34:38.954Z,88.549805
2023-02-18T05:35:47.625Z,88.446045
2023-02-18T05:36:56.271Z,88.446045
2023-02-18T05:38:05.941Z,88.244629
2023-02-18T05:39:15.597Z,88.140869
2023-02-18T05:40:24.244Z,88.043213
2023-02-18T05:41:30.902Z,88.043213
2023-02-18T05:42:40.539Z,87.939453
2023-02-18T05:43:50.238Z,87.939453
2023-02-18T05:44:59.881Z,87.835693
2023-02-18T05:46:08.928Z,87.835693
2023-02-18T05:47:18.195Z,87.939453
2023-02-18T05:48:27.838Z,87.939453
2023-02-18T05:49:35.472Z,87.835693
2023-02-18T05:50:44.150Z,87.731934
2023-02-18T05:51:53.797Z,87.731934
2023-02-18T05:53:03.455Z,87.634277
2023-02-18T05:54:13.126Z,87.634277
2023-02-18T05:55:21.760Z,87.286377
2023-02-18T05:56:31.437Z,87.286377
2023-02-18T05:57:40.087Z,87.182617
2023-02-18T05:58:48.724Z,87.078857
2023-02-18T06:00:00.116Z,87.182617
2023-02-18T06:01:07.021Z,87.182617
2023-02-18T06:02:16.694Z,87.182617
2023-02-18T06:03:26.313Z,86.981201
2023-02-18T06:04:34.961Z,86.877441
2023-02-18T06:05:42.605Z,86.773682
2023-02-18T06:06:52.306Z,86.669922
2023-02-18T06:08:00.958Z,86.669922
2023-02-18T06:09:10.599Z,86.669922
2023-02-18T06:10:19.250Z,86.572266
2023-02-18T06:11:26.905Z,86.572266
2023-02-18T06:12:36.563Z,86.572266
2023-02-18T06:13:46.236Z,86.669922
2023-02-18T06:14:53.868Z,86.572266
2023-02-18T06:16:02.603Z,86.364746
2023-02-18T06:17:11.175Z,86.364746
2023-02-18T06:18:21.841Z,86.260986
2023-02-18T06:19:31.457Z,86.260986
2023-02-18T06:20:40.116Z,86.260986
2023-02-18T06:21:49.781Z,86.260986
2023-02-18T06:22:59.424Z,86.16333
2023-02-18T06:24:09.068Z,86.05957
2023-02-18T06:25:17.710Z,86.16333
2023-02-18T06:26:27.377Z,86.16333
2023-02-18T06:27:37.035Z,86.16333
2023-02-18T06:28:44.664Z,86.05957
2023-02-18T06:29:53.309Z,86.16333
2023-02-18T06:31:03.083Z,86.16333
2023-02-18T06:32:11.788Z,86.05957
2023-02-18T06:33:21.362Z,85.955811
2023-02-18T06:34:30.020Z,85.858154
2023-02-18T06:35:39.648Z,85.858154
2023-02-18T06:36:49.314Z,85.754395
2023-02-18T06:37:56.996Z,85.345459
2023-02-18T06:39:06.625Z,85.241699
2023-02-18T06:40:16.270Z,85.241699
2023-02-18T06:41:24.926Z,85.137939
2023-02-18T06:42:33.571Z,85.040283
2023-02-18T06:43:42.211Z,84.899902
2023-02-18T06:44:50.851Z,84.796143
2023-02-18T06:46:00.500Z,84.796143
2023-02-18T06:47:09.148Z,84.692383
2023-02-18T06:48:18.798Z,84.692383
2023-02-18T06:49:28.452Z,84.588623
2023-02-18T06:50:38.123Z,84.692383
2023-02-18T06:51:47.757Z,84.692383
2023-02-18T06:52:55.399Z,84.588623
2023-02-18T06:54:04.029Z,84.490967
2023-02-18T06:55:13.677Z,84.387207
2023-02-18T06:56:21.350Z,84.387207
2023-02-18T06:57:29.982Z,84.283447
2023-02-18T06:58:39.654Z,84.283447
2023-02-18T06:59:48.311Z,84.387207
2023-02-18T07:00:58.013Z,84.179688
2023-02-18T07:02:06.617Z,84.179688
2023-02-18T07:03:15.261Z,84.082031
2023-02-18T07:04:24.907Z,84.082031
2023-02-18T07:05:33.558Z,84.082031
2023-02-18T07:06:43.249Z,84.179688
2023-02-18T07:07:52.874Z,84.179688
2023-02-18T07:09:01.510Z,84.179688
2023-02-18T07:10:11.207Z,83.978271
2023-02-18T07:11:20.847Z,83.874512
2023-02-18T07:12:30.485Z,83.978271
2023-02-18T07:13:40.120Z,83.978271
2023-02-18T07:14:48.755Z,84.082031
2023-02-18T07:15:57.406Z,83.776855
2023-02-18T07:17:07.060Z,83.776855
2023-02-18T07:18:16.692Z,83.776855
2023-02-18T07:19:26.387Z,83.673096
2023-02-18T07:20:36.101Z,83.569336
2023-02-18T07:21:45.914Z,83.465576
2023-02-18T07:22:55.541Z,83.465576
2023-02-18T07:24:03.173Z,83.36792
2023-02-18T07:25:12.819Z,83.325195
2023-02-18T07:26:22.476Z,83.227539
2023-02-18T07:27:31.169Z,83.123779
2023-02-18T07:28:40.814Z,83.123779
2023-02-18T07:29:49.463Z,83.123779
2023-02-18T07:30:59.111Z,82.818604
2023-02-18T07:32:08.797Z,82.611084
2023-02-18T07:33:16.397Z,82.611084
2023-02-18T07:34:24.055Z,82.409668
2023-02-18T07:35:33.716Z,82.409668
2023-02-18T07:36:42.367Z,82.305908
2023-02-18T07:37:52.033Z,82.305908
2023-02-18T07:39:01.670Z,82.409668
2023-02-18T07:40:10.303Z,82.409668
2023-02-18T07:41:19.942Z,82.104492
2023-02-18T07:42:28.605Z,82.305908
2023-02-18T07:43:37.242Z,82.208252
2023-02-18T07:44:46.932Z,82.305908
2023-02-18T07:45:55.653Z,82.409668
2023-02-18T07:47:04.238Z,82.104492
2023-02-18T07:48:12.885Z,82.000732
2023-02-18T07:49:22.520Z,82.000732
2023-02-18T07:50:31.166Z,82.104492
2023-02-18T07:51:39.803Z,82.208252
2023-02-18T07:52:49.476Z,82.305908
2023-02-18T07:53:58.140Z,82.305908
2023-02-18T07:55:05.744Z,82.409668
2023-02-18T07:56:15.387Z,82.513428
2023-02-18T07:57:24.045Z,82.611084
2023-02-18T07:58:32.688Z,82.714844
2023-02-18T07:59:41.336Z,82.818604
2023-02-18T08:00:49.994Z,82.818604
2023-02-18T08:01:59.692Z,82.818604
2023-02-18T08:03:07.302Z,82.91626
2023-02-18T08:04:14.997Z,82.91626
2023-02-18T08:05:24.575Z,83.02002
2023-02-18T08:06:34.215Z,83.123779
2023-02-18T08:07:43.890Z,83.02002
2023-02-18T08:08:52.525Z,83.227539
2023-02-18T08:10:02.218Z,83.325195
2023-02-18T08:11:18.750Z,83.325195
2023-02-18T08:12:22.455Z,83.325195
2023-02-18T08:13:30.094Z,83.325195
2023-02-18T08:14:40.735Z,83.428955
2023-02-18T08:15:50.388Z,83.325195
2023-02-18T08:16:59.059Z,83.02002
2023-02-18T08:18:07.704Z,83.02002
2023-02-18T08:19:16.348Z,83.02002
2023-02-18T08:20:26.013Z,83.02002
2023-02-18T08:21:35.641Z,82.818604
2023-02-18T08:22:43.281Z,82.818604
2023-02-18T08:23:52.926Z,82.714844
2023-02-18T08:25:02.573Z,82.714844
2023-02-18T08:26:12.240Z,82.611084
2023-02-18T08:27:21.873Z,82.409668
2023-02-18T08:28:31.508Z,82.104492
2023-02-18T08:29:41.198Z,82.104492
2023-02-18T08:30:49.913Z,82.000732
2023-02-18T08:31:58.567Z,82.104492
2023-02-18T08:33:08.193Z,82.305908
2023-02-18T08:34:16.838Z,82.104492
2023-02-18T08:35:25.486Z,82.000732
2023-02-18T08:36:35.143Z,82.000732
2023-02-18T08:37:52.324Z,81.896973
2023-02-18T08:38:55.429Z,81.756592
2023-02-18T08:40:03.079Z,81.860352
2023-02-18T08:41:12.712Z,81.756592
2023-02-18T08:42:22.390Z,81.860352
2023-02-18T08:43:32.073Z,81.964111
2023-02-18T08:44:40.687Z,81.860352
2023-02-18T08:45:50.395Z,81.756592
2023-02-18T08:46:58.977Z,81.658936
2023-02-18T08:48:13.964Z,81.719971
2023-02-18T08:49:19.255Z,81.414795
2023-02-18T08:50:26.884Z,81.213379
2023-02-18T08:51:36.532Z,81.213379
2023-02-18T08:52:45.180Z,81.311035
2023-02-18T08:53:53.820Z,81.072998
2023-02-18T08:55:02.455Z,80.865479
2023-02-18T08:56:11.108Z,80.664062
2023-02-18T08:57:19.731Z,80.419922
2023-02-18T08:58:28.419Z,79.91333
2023-02-18T08:59:37.031Z,79.772949
2023-02-18T09:00:46.728Z,79.370117
2023-02-18T09:01:55.313Z,78.717041
2023-02-18T09:03:05.004Z,78.314209
2023-02-18T09:04:13.681Z,78.210449
2023-02-18T09:05:23.278Z,78.112793
2023-02-18T09:06:33.012Z,78.552246
2023-02-18T09:07:41.557Z,78.857422
2023-02-18T09:08:49.213Z,78.759766
2023-02-18T09:09:58.850Z,78.552246
2023-02-18T09:11:07.793Z,78.411865
2023-02-18T09:12:16.145Z,78.24707
2023-02-18T09:13:24.804Z,78.35083
2023-02-18T09:14:34.478Z,78.491211
2023-02-18T09:15:44.118Z,78.796387
2023-02-18T09:16:53.748Z,79.199219
2023-02-18T09:18:02.429Z,79.101562
2023-02-18T09:19:12.075Z,79.101562
2023-02-18T09:20:20.742Z,79.101562
2023-02-18T09:21:29.431Z,78.796387
2023-02-18T09:22:38.088Z,79.101562
2023-02-18T09:23:46.773Z,78.588867
2023-02-18T09:24:56.424Z,78.796387
2023-02-18T09:26:05.062Z,78.692627
2023-02-18T09:27:13.713Z,78.656006
2023-02-18T09:28:23.415Z,78.552246
2023-02-18T09:29:33.031Z,77.807617
2023-02-18T09:30:41.786Z,77.740479
2023-02-18T09:31:51.407Z,77.636719
2023-02-18T09:32:59.979Z,78.045654
2023-02-18T09:34:09.691Z,78.149414
2023-02-18T09:35:18.332Z,78.24707
2023-02-18T09:36:26.980Z,78.149414
2023-02-18T09:37:36.619Z,78.045654
2023-02-18T09:38:45.311Z,77.740479
2023-02-18T09:39:54.964Z,77.838135
2023-02-18T09:41:03.605Z,77.532959
2023-02-18T09:42:13.357Z,77.600098
2023-02-18T09:43:23.024Z,77.398682
2023-02-18T09:44:30.662Z,76.647949
2023-02-18T09:45:38.300Z,76.647949
2023-02-18T09:46:47.998Z,76.550293
2023-02-18T09:47:55.615Z,76.342773
2023-02-18T09:49:05.284Z,76.550293
2023-02-18T09:50:14.945Z,75.90332
2023-02-18T09:51:24.590Z,75.396729
2023-02-18T09:52:33.235Z,75.189209
2023-02-18T09:53:41.897Z,74.987793
2023-02-18T09:54:51.543Z,75.054932
2023-02-18T09:55:59.225Z,74.749756
2023-02-18T09:57:06.881Z,74.44458
2023-02-18T09:58:16.531Z,74.44458
2023-02-18T09:59:26.213Z,74.54834
2023-02-18T10:00:34.854Z,74.645996
2023-02-18T10:01:44.540Z,74.310303
2023-02-18T10:02:54.157Z,74.102783
2023-02-18T10:04:03.808Z,73.803711
2023-02-18T10:05:11.460Z,73.358154
2023-02-18T10:06:19.100Z,73.260498
2023-02-18T10:07:28.729Z,72.650146
2023-02-18T10:08:38.390Z,72.955322
2023-02-18T10:09:47.058Z,73.022461
2023-02-18T10:10:55.740Z,72.314453
2023-02-18T10:12:05.405Z,72.106934
2023-02-18T10:13:14.016Z,71.875
2023-02-18T10:14:22.734Z,71.972656
2023-02-18T10:15:31.381Z,71.66748
2023-02-18T10:16:41.039Z,71.368408
2023-02-18T10:17:49.691Z,72.009277
2023-02-18T10:18:59.372Z,72.314453
2023-02-18T10:20:08.981Z,72.076416
2023-02-18T10:21:17.641Z,71.600342
2023-02-18T10:22:27.344Z,71.704102
2023-02-18T10:23:35.003Z,72.210693
2023-02-18T10:24:42.640Z,72.106934
2023-02-18T10:25:52.289Z,71.801758
2023-02-18T10:27:00.928Z,72.314453
2023-02-18T10:28:09.571Z,72.143555
2023-02-18T10:29:21.348Z,71.838379
2023-02-18T10:30:27.957Z,72.247314
2023-02-18T10:31:37.616Z,72.247314
2023-02-18T10:32:46.170Z,72.344971
2023-02-18T10:33:55.813Z,72.106934
2023-02-18T10:35:05.506Z,71.704102
2023-02-18T10:36:15.150Z,71.600342
2023-02-18T10:37:23.813Z,71.502686
2023-02-18T10:38:33.467Z,71.295166
2023-02-18T10:39:42.192Z,71.838379
2023-02-18T10:40:52.839Z,72.344971
2023-02-18T10:42:01.490Z,71.801758
2023-02-18T10:43:10.154Z,71.801758
2023-02-18T10:44:19.810Z,72.009277
2023-02-18T10:45:28.441Z,72.210693
2023-02-18T10:46:38.120Z,71.905518
2023-02-18T10:47:46.742Z,72.009277
2023-02-18T10:48:55.396Z,71.801758
2023-02-18T10:50:05.080Z,71.704102
2023-02-18T10:51:13.762Z,71.704102
2023-02-18T10:52:21.369Z,71.600342
2023-02-18T10:53:31.031Z,71.19751
2023-02-18T10:54:39.709Z,71.398926
2023-02-18T10:55:48.367Z,71.636963
2023-02-18T10:56:57.089Z,71.600342
2023-02-18T10:58:05.733Z,72.143555
2023-02-18T10:59:15.434Z,71.600342
2023-02-18T11:00:23.111Z,71.295166
2023-02-18T11:01:32.833Z,71.295166
2023-02-18T11:02:42.528Z,70.959473
2023-02-18T11:03:52.206Z,70.013428
2023-02-18T11:05:02.021Z,69.781494
2023-02-18T11:06:09.519Z,69.140625
2023-02-18T11:07:19.185Z,68.939209
2023-02-18T11:08:29.800Z,68.835449
2023-02-18T11:09:38.476Z,69.067383
2023-02-18T11:10:48.106Z,69.238281
2023-02-18T11:12:07.713Z,68.939209
2023-02-18T11:13:07.393Z,68.395996
2023-02-18T11:14:17.071Z,68.731689
2023-02-18T11:15:26.765Z,68.096924
2023-02-18T11:16:36.413Z,67.150879
2023-02-18T11:17:46.069Z,67.590332
2023-02-18T11:18:53.702Z,67.486572
2023-02-18T11:20:01.390Z,67.486572
2023-02-18T11:21:11.260Z,67.150879
2023-02-18T11:22:19.672Z,67.181396
2023-02-18T11:23:29.346Z,67.053223
2023-02-18T11:24:39.026Z,66.97998
2023-02-18T11:25:48.710Z,66.949463
2023-02-18T11:26:58.361Z,66.442871
2023-02-18T11:28:06.013Z,66.644287
2023-02-18T11:29:14.671Z,67.181396
2023-02-18T11:30:24.477Z,66.845703
2023-02-18T11:31:33.031Z,66.516113
2023-02-18T11:32:42.660Z,66.107178
2023-02-18T11:33:51.327Z,66.107178
2023-02-18T11:34:59.993Z,66.210938
2023-02-18T11:36:09.652Z,66.345215
2023-02-18T11:37:17.291Z,66.546631
2023-02-18T11:38:24.932Z,66.442871
2023-02-18T11:39:34.617Z,66.546631
2023-02-18T11:40:44.288Z,66.107178
2023-02-18T11:41:53.963Z,65.936279
2023-02-18T11:43:02.623Z,66.210938
2023-02-18T11:44:11.275Z,66.314697
2023-02-18T11:45:20.969Z,65.472412
2023-02-18T11:46:29.682Z,65.50293
2023-02-18T11:47:39.275Z,65.50293
2023-02-18T11:48:46.975Z,65.808105
2023-02-18T11:49:55.694Z,65.808105
2023-02-18T11:51:07.221Z,65.808105
2023-02-18T11:52:14.988Z,65.905762
2023-02-18T11:53:24.643Z,65.808105
2023-02-18T11:54:33.290Z,65.704346
2023-02-18T11:55:42.989Z,65.368652
2023-02-18T11:56:53.877Z,65.100098
2023-02-18T11:58:02.284Z,65.130615
2023-02-18T11:59:10.969Z,65.332031
2023-02-18T12:00:20.624Z,65.667725
2023-02-18T12:01:29.364Z,66.040039
2023-02-18T12:02:37.963Z,66.040039
2023-02-18T12:03:47.631Z,65.734863
2023-02-18T12:04:56.268Z,65.637207
2023-02-18T12:06:05.919Z,65.637207
2023-02-18T12:07:15.569Z,65.808105
2023-02-18T12:08:24.232Z,65.637207
2023-02-18T12:09:33.865Z,65.533447
2023-02-18T12:10:42.537Z,65.869141
2023-02-18T12:11:52.216Z,66.577148
2023-02-18T12:13:02.849Z,66.375732
2023-02-18T12:14:11.493Z,66.070557
2023-02-18T12:15:21.227Z,66.271973
2023-02-18T12:16:29.891Z,66.271973
2023-02-18T12:17:37.535Z,66.174316
2023-02-18T12:18:47.189Z,66.375732
2023-02-18T12:19:56.848Z,66.577148
2023-02-18T12:21:06.949Z,66.345215
2023-02-18T12:22:15.286Z,66.345215
2023-02-18T12:23:24.939Z,66.314697
2023-02-18T12:24:34.586Z,65.808105
2023-02-18T12:25:43.277Z,65.270996
2023-02-18T12:26:50.920Z,64.96582
2023-02-18T12:28:00.640Z,65.039062
2023-02-18T12:29:10.277Z,64.733887
2023-02-18T12:30:19.010Z,65.06958
2023-02-18T12:31:27.731Z,65.39917
2023-02-18T12:32:36.277Z,65.808105
2023-02-18T12:33:45.924Z,65.50293
2023-02-18T12:34:54.608Z,65.39917
2023-02-18T12:36:03.298Z,65.606689
2023-02-18T12:37:12.955Z,65.808105
2023-02-18T12:38:22.625Z,65.606689
2023-02-18T12:39:32.279Z,65.429688
2023-02-18T12:40:40.945Z,66.241455
2023-02-18T12:41:49.585Z,66.040039
2023-02-18T12:42:58.237Z,65.966797
2023-02-18T12:44:05.937Z,66.271973
2023-02-18T12:45:14.551Z,66.473389
2023-02-18T12:46:24.248Z,66.271973
2023-02-18T12:47:32.927Z,66.271973
2023-02-18T12:48:41.547Z,66.375732
2023-02-18T12:49:50.240Z,66.375732
2023-02-18T12:50:59.917Z,66.473389
2023-02-18T12:52:09.577Z,66.375732
2023-02-18T12:53:19.241Z,65.966797
2023-02-18T12:54:27.909Z,65.869141
2023-02-18T12:55:37.605Z,66.271973
2023-02-18T12:56:47.291Z,66.137695
2023-02-18T12:57:56.951Z,65.533447
2023-02-18T12:59:05.597Z,65.301514
2023-02-18T13:00:15.304Z,64.666748
2023-02-18T13:01:25.012Z,64.562988
2023-02-18T13:02:32.611Z,64.459229
2023-02-18T13:03:40.285Z,64.129639
2023-02-18T13:04:50.917Z,64.025879
2023-02-18T13:05:59.596Z,63.696289
2023-02-18T13:07:08.265Z,63.421631
2023-02-18T13:08:16.940Z,64.129639
2023-02-18T13:09:25.623Z,63.15918
2023-02-18T13:10:35.338Z,62.652588